Terminal Aerodrome Forecast
Issued by NWS Bismarck, ND

Home | Current Version | Previous Version | Graphics & Text | Print | Product List | Glossary On
Versions: 1 2 3 4 5 6 7 8 9 10 11 12 13 14 15 16
000
FTUS43 KBIS 200300 AAA
TAFBIS
TAF AMD
KBIS 200300Z 2003/2024 30007KT P6SM BKN025
     FM200500 30006KT P6SM SCT025
     FM200800 VRB05KT P6SM SCT040=

USA.gov is the U.S. government's official web portal to all federal, state and local government web resources and services.